Time;durP1;ratioP1;P1;durP2;ratioP2;P2;SDS_P1;SDS_P2;PMS_P1;PMS_P2;Temp;Humidity;BMP_temperature;BMP_pressure;BME280_temperature;BME280_humidity;BME280_pressure;Samples;Min_cycle;Max_cycle;Signal;HPM_P1;HPM_P2
2023/10/11 00:00:57;;;;;;;4.70;1.50;;;16.50;99.90;;;;;;4991898;28;20047;-63
2023/10/11 00:05:54;;;;;;;4.75;1.50;;;16.50;99.90;;;;;;5004802;28;20049;-63
2023/10/11 00:08:26;;;;;;;2.83;1.10;;;16.60;99.90;;;;;;4998077;28;20068;-63
2023/10/11 00:10:57;;;;;;;2.90;1.48;;;16.60;99.90;;;;;;5010421;28;20522;-63
2023/10/11 00:13:32;;;;;;;2.05;1.20;;;16.60;99.90;;;;;;5009449;28;20065;-63
2023/10/11 00:16:09;;;;;;;3.97;1.45;;;16.70;99.90;;;;;;5011061;28;20053;-63
2023/10/11 00:18:40;;;;;;;3.45;1.17;;;16.70;99.90;;;;;;5009443;28;20054;-63
2023/10/11 00:21:11;;;;;;;4.43;1.48;;;16.80;99.90;;;;;;5011138;28;20053;-63
2023/10/11 00:23:50;;;;;;;2.05;1.20;;;16.80;99.90;;;;;;5010753;28;20065;-64
2023/10/11 00:26:19;;;;;;;6.22;1.38;;;16.80;99.90;;;;;;5009797;28;20061;-63
2023/10/11 00:28:54;;;;;;;5.63;1.67;;;16.80;99.90;;;;;;5009269;28;20046;-64
2023/10/11 00:31:22;;;;;;;5.00;1.48;;;16.90;99.90;;;;;;5010847;28;20049;-63
2023/10/11 00:33:49;;;;;;;3.85;1.50;;;16.90;99.90;;;;;;5009570;28;20510;-64
2023/10/11 00:36:24;;;;;;;3.85;1.35;;;16.90;99.90;;;;;;5009877;28;20057;-64
2023/10/11 00:38:52;;;;;;;2.05;1.33;;;17.00;99.90;;;;;;5010647;28;20042;-63
2023/10/11 00:41:20;;;;;;;5.32;1.38;;;17.00;99.90;;;;;;5010980;28;20076;-63
2023/10/11 00:43:55;;;;;;;2.65;1.38;;;17.00;99.90;;;;;;5009162;28;20057;-63
2023/10/11 00:46:50;;;;;;;4.60;1.52;;;17.00;99.90;;;;;;5010825;28;20038;-63
2023/10/11 00:49:20;;;;;;;4.70;1.42;;;17.00;99.90;;;;;;5007275;28;20061;-63
2023/10/11 00:51:48;;;;;;;4.68;1.48;;;17.00;99.90;;;;;;5009718;28;20095;-63
2023/10/11 00:54:16;;;;;;;9.77;1.65;;;17.00;99.90;;;;;;5008908;28;20058;-63
2023/10/11 00:56:49;;;;;;;3.37;1.50;;;17.00;99.90;;;;;;5010607;28;20034;-64
2023/10/11 00:59:21;;;;;;;2.90;1.25;;;17.00;99.90;;;;;;5003472;28;20304;-64
2023/10/11 01:01:52;;;;;;;3.45;1.30;;;17.00;99.90;;;;;;4973114;28;20517;-63
2023/10/11 01:04:20;;;;;;;2.60;0.90;;;17.00;99.90;;;;;;5003733;28;20050;-64
2023/10/11 01:06:48;;;;;;;4.53;1.30;;;17.00;99.90;;;;;;4994329;28;20605;-63
2023/10/11 01:09:26;;;;;;;4.35;1.45;;;17.00;99.90;;;;;;4995741;28;20050;-63
2023/10/11 01:11:54;;;;;;;4.18;1.38;;;17.00;99.90;;;;;;4994039;28;20073;-63
2023/10/11 01:14:23;;;;;;;2.85;1.10;;;16.90;99.90;;;;;;5002360;28;20053;-63
2023/10/11 01:16:51;;;;;;;3.35;1.17;;;17.00;99.90;;;;;;5008805;28;20512;-63
2023/10/11 01:19:20;;;;;;;4.00;1.15;;;17.00;99.90;;;;;;5007348;28;20061;-63
2023/10/11 01:21:52;;;;;;;4.80;1.48;;;17.00;99.90;;;;;;5000951;28;20062;-62
2023/10/11 01:24:20;;;;;;;4.72;1.35;;;17.00;99.90;;;;;;4999069;28;20053;-63
2023/10/11 01:26:49;;;;;;;5.72;1.55;;;17.00;99.90;;;;;;5006442;28;20046;-63
2023/10/11 01:29:17;;;;;;;4.93;1.48;;;16.90;99.90;;;;;;4991505;28;20494;-63
2023/10/11 01:31:45;;;;;;;3.30;1.10;;;16.90;99.90;;;;;;4992172;28;20065;-63
2023/10/11 01:34:14;;;;;;;3.72;1.27;;;17.00;99.90;;;;;;5001992;28;20504;-63
2023/10/11 01:36:46;;;;;;;;;;;17.00;99.90;;;;;;5002368;28;20383;-63
2023/10/11 01:39:14;;;;;;;4.28;1.60;;;17.00;99.90;;;;;;5001805;28;20558;-63
2023/10/11 01:41:42;;;;;;;7.50;1.90;;;17.00;99.90;;;;;;4999145;28;20039;-64
2023/10/11 01:44:11;;;;;;;2.72;1.13;;;17.00;99.90;;;;;;5009031;28;20060;-63
2023/10/11 01:46:40;;;;;;;2.38;1.20;;;17.00;99.90;;;;;;4996884;28;20035;-64
2023/10/11 01:49:10;;;;;;;5.85;1.73;;;17.00;99.90;;;;;;5001644;28;20529;-63
2023/10/11 01:51:46;;;;;;;4.18;1.35;;;17.00;99.90;;;;;;5005147;28;20482;-63
2023/10/11 01:54:15;;;;;;;5.80;1.40;;;17.00;99.90;;;;;;5008365;28;20049;-63
2023/10/11 01:56:43;;;;;;;3.38;1.42;;;17.00;99.90;;;;;;5012857;28;20053;-63
2023/10/11 01:59:15;;;;;;;9.38;1.95;;;17.00;99.90;;;;;;5011073;28;20045;-63
2023/10/11 02:01:54;;;;;;;5.35;1.92;;;16.90;99.90;;;;;;5007414;28;20053;-63
2023/10/11 02:04:23;;;;;;;2.42;1.25;;;16.90;99.90;;;;;;4998925;28;20074;-63
2023/10/11 02:06:50;;;;;;;5.22;1.48;;;16.90;99.90;;;;;;5001692;28;20042;-63
2023/10/11 02:09:21;;;;;;;4.88;1.35;;;16.90;99.90;;;;;;4992844;28;20049;-63
2023/10/11 02:11:54;;;;;;;6.65;2.60;;;16.90;99.90;;;;;;5003062;28;20410;-63
2023/10/11 02:14:24;;;;;;;4.47;1.85;;;16.80;99.90;;;;;;5002618;28;20053;-63
2023/10/11 02:16:55;;;;;;;3.55;1.45;;;16.80;99.90;;;;;;5002959;28;20049;-63
2023/10/11 02:19:24;;;;;;;3.17;1.20;;;16.80;99.90;;;;;;5011254;28;20046;-63
2023/10/11 02:21:53;;;;;;;5.57;2.08;;;16.80;99.90;;;;;;5002339;28;20042;-63
2023/10/11 02:24:25;;;;;;;5.55;1.33;;;16.80;99.90;;;;;;4992450;28;20486;-63
2023/10/11 02:26:54;;;;;;;4.20;1.15;;;16.80;99.90;;;;;;5000245;28;20038;-63
2023/10/11 02:29:25;;;;;;;4.70;1.17;;;16.80;99.90;;;;;;5012254;28;20469;-63
2023/10/11 02:31:55;;;;;;;3.17;1.40;;;16.80;99.90;;;;;;5006773;28;20049;-63
2023/10/11 02:34:23;;;;;;;3.35;1.45;;;16.80;99.90;;;;;;5009149;28;20417;-63
2023/10/11 02:37:03;;;;;;;6.40;2.10;;;16.80;99.90;;;;;;4994113;28;20393;-62
2023/10/11 02:39:34;;;;;;;5.57;1.60;;;16.80;99.90;;;;;;4992076;28;20050;-63
2023/10/11 02:42:05;;;;;;;5.07;1.77;;;16.80;99.90;;;;;;4991197;28;20042;-62
2023/10/11 02:44:39;;;;;;;4.95;1.75;;;16.80;99.90;;;;;;4992301;28;20084;-62
2023/10/11 02:47:09;;;;;;;5.18;1.38;;;16.80;99.90;;;;;;5006965;28;20049;-62
2023/10/11 02:49:38;;;;;;;5.78;1.77;;;16.80;99.90;;;;;;4994169;28;20037;-63
2023/10/11 02:52:08;;;;;;;6.03;1.42;;;16.70;99.90;;;;;;5011869;28;20054;-63
2023/10/11 02:54:39;;;;;;;3.95;1.70;;;16.70;99.90;;;;;;5008395;28;20605;-63
2023/10/11 02:57:09;;;;;;;7.68;1.67;;;16.70;99.90;;;;;;4990841;28;20058;-63
2023/10/11 02:59:44;;;;;;;3.20;1.10;;;16.80;99.90;;;;;;5005965;28;20039;-63
2023/10/11 03:02:15;;;;;;;2.95;1.30;;;16.80;99.90;;;;;;4990368;28;20053;-63
2023/10/11 03:04:44;;;;;;;3.15;1.40;;;16.80;99.90;;;;;;5010138;28;20057;-64
2023/10/11 03:07:21;;;;;;;6.47;1.85;;;16.70;99.90;;;;;;5011345;28;20441;-62
2023/10/11 03:09:50;;;;;;;5.65;1.70;;;16.70;99.90;;;;;;5000917;28;20060;-62
2023/10/11 03:12:18;;;;;;;5.68;1.90;;;16.70;99.90;;;;;;5011173;28;20038;-62
2023/10/11 03:14:54;;;;;;;5.82;1.50;;;16.70;99.90;;;;;;5010409;28;20045;-62
2023/10/11 03:17:23;;;;;;;3.58;1.20;;;16.70;99.90;;;;;;5005653;28;20054;-62
2023/10/11 03:19:54;;;;;;;6.38;1.95;;;16.70;99.90;;;;;;5009941;28;20044;-62
2023/10/11 03:22:21;;;;;;;5.10;1.95;;;16.60;99.90;;;;;;5008226;28;20058;-63
2023/10/11 03:24:54;;;;;;;4.00;1.70;;;16.60;99.90;;;;;;5011297;28;20057;-62
2023/10/11 03:27:27;;;;;;;7.85;2.17;;;16.60;99.90;;;;;;5011637;28;20045;-62
2023/10/11 03:29:56;;;;;;;6.10;1.90;;;16.60;99.90;;;;;;5008323;28;20046;-63
2023/10/11 03:32:25;;;;;;;6.45;1.90;;;16.60;99.90;;;;;;5011516;28;20646;-63
2023/10/11 03:34:55;;;;;;;5.35;1.83;;;16.60;99.90;;;;;;5011329;28;20049;-65
2023/10/11 03:37:27;;;;;;;4.47;1.90;;;16.60;99.90;;;;;;5010333;28;20042;-63
2023/10/11 03:39:56;;;;;;;5.68;1.90;;;16.50;99.90;;;;;;5011030;28;20046;-63
2023/10/11 03:45:11;;;;;;;5.38;1.65;;;16.50;99.90;;;;;;5010924;28;20046;-63
2023/10/11 03:47:39;;;;;;;6.22;1.95;;;16.50;99.90;;;;;;5011157;28;20053;-63
2023/10/11 03:50:11;;;;;;;2.33;1.60;;;16.50;99.90;;;;;;5009389;28;20490;-63
2023/10/11 03:52:40;;;;;;;8.90;1.92;;;16.50;99.90;;;;;;5011443;28;20045;-63
2023/10/11 03:55:10;;;;;;;2.83;1.38;;;16.50;99.90;;;;;;5011339;28;20418;-63
2023/10/11 03:57:42;;;;;;;3.90;1.55;;;16.50;99.90;;;;;;5011244;28;20048;-63
2023/10/11 04:00:46;;;;;;;5.60;1.70;;;16.50;99.90;;;;;;5010819;28;20065;-63
2023/10/11 04:03:05;;;;;;;5.28;1.38;;;16.50;99.90;;;;;;5011081;28;20073;-62
2023/10/11 04:05:36;;;;;;;7.03;1.88;;;16.50;99.90;;;;;;5011104;28;20378;-62
2023/10/11 04:08:10;;;;;;;3.95;1.70;;;16.40;99.90;;;;;;5011148;28;20046;-63
2023/10/11 04:10:39;;;;;;;7.80;2.58;;;16.40;99.90;;;;;;5010987;28;20049;-66
2023/10/11 04:13:09;;;;;;;5.03;1.40;;;16.30;99.90;;;;;;5011080;28;20061;-63
2023/10/11 04:15:40;;;;;;;8.80;1.65;;;16.40;99.90;;;;;;5012609;28;20054;-62
2023/10/11 04:18:32;;;;;;;5.15;1.88;;;16.30;99.90;;;;;;5013689;28;20512;-63
2023/10/11 04:23:39;;;;;;;5.25;2.00;;;16.30;99.90;;;;;;5014570;28;20049;-63
2023/10/11 04:26:26;;;;;;;4.70;1.35;;;16.30;99.90;;;;;;5014824;28;20054;-62
2023/10/11 04:28:54;;;;;;;7.00;1.50;;;16.30;99.90;;;;;;4997035;28;20050;-63
2023/10/11 04:31:31;;;;;;;6.18;1.73;;;16.30;99.90;;;;;;5013110;28;20057;-63
2023/10/11 04:33:59;;;;;;;6.25;1.63;;;16.30;99.90;;;;;;5013148;28;20050;-63
2023/10/11 04:36:28;;;;;;;3.72;1.50;;;16.30;99.90;;;;;;5012549;28;20516;-63
2023/10/11 04:39:13;;;;;;;7.13;2.10;;;16.30;99.90;;;;;;5014217;28;20045;-63
2023/10/11 04:41:49;;;;;;;3.35;1.30;;;16.20;99.90;;;;;;5014310;28;20046;-63
2023/10/11 04:44:17;;;;;;;4.20;1.67;;;16.20;99.90;;;;;;5014204;28;20537;-62
2023/10/11 04:46:55;;;;;;;3.63;1.80;;;16.30;99.90;;;;;;5013033;28;20049;-63
2023/10/11 04:49:25;;;;;;;4.68;1.33;;;16.20;99.90;;;;;;4994484;28;20057;-63
2023/10/11 04:51:56;;;;;;;5.13;1.70;;;16.30;99.90;;;;;;5007920;28;20096;-63
2023/10/11 04:54:41;;;;;;;4.30;1.70;;;16.30;99.90;;;;;;5009197;28;20053;-63
2023/10/11 04:57:17;;;;;;;6.15;1.50;;;16.30;99.90;;;;;;5005056;28;20057;-63
2023/10/11 04:59:46;;;;;;;5.63;1.80;;;16.30;99.90;;;;;;4996721;28;20046;-62
2023/10/11 05:02:28;;;;;;;8.93;2.10;;;16.30;99.90;;;;;;4989479;28;20201;-63
2023/10/11 05:04:56;;;;;;;3.60;1.50;;;16.40;99.90;;;;;;4999587;28;20034;-62
2023/10/11 05:07:25;;;;;;;7.05;2.63;;;16.40;99.90;;;;;;4997796;28;20421;-60
2023/10/11 05:09:59;;;;;;;7.82;1.88;;;16.30;99.90;;;;;;5010347;28;20053;-60
2023/10/11 05:12:27;;;;;;;4.45;1.58;;;16.20;99.90;;;;;;4998064;28;20052;-62
2023/10/11 05:14:56;;;;;;;5.78;1.83;;;16.10;99.90;;;;;;4993386;28;20494;-62
2023/10/11 05:20:08;;;;;;;7.22;1.90;;;15.90;99.90;;;;;;4990807;28;20501;-62
2023/10/11 05:25:16;;;;;;;6.68;1.90;;;15.70;99.90;;;;;;5008948;28;20057;-61
2023/10/11 05:27:51;;;;;;;4.82;1.73;;;15.70;99.90;;;;;;5005963;28;20498;-61
2023/10/11 05:52:19;;;;;;;4.38;1.10;;;15.40;99.90;;;;;;5006416;28;20046;-60
2023/10/11 05:54:49;;;;;;;10.63;1.85;;;15.40;99.90;;;;;;5006343;28;20053;-59
2023/10/11 05:57:19;;;;;;;4.47;1.50;;;15.30;99.90;;;;;;5003295;28;20069;-59
2023/10/11 05:59:47;;;;;;;4.75;1.38;;;15.30;99.90;;;;;;4998085;28;20491;-59
2023/10/11 06:02:19;;;;;;;3.78;1.20;;;15.30;99.90;;;;;;5006760;28;20053;-59
2023/10/11 06:04:47;;;;;;;4.50;1.48;;;15.30;99.90;;;;;;5007730;28;20053;-59
2023/10/11 06:07:20;;;;;;;2.50;1.30;;;15.30;99.90;;;;;;5008972;28;20046;-59
2023/10/11 06:09:58;;;;;;;3.05;1.00;;;15.20;99.90;;;;;;5009175;28;20489;-59
2023/10/11 06:12:27;;;;;;;3.50;1.10;;;15.30;99.90;;;;;;5005766;28;20156;-59
2023/10/11 06:14:56;;;;;;;3.03;0.80;;;15.20;99.90;;;;;;5004477;28;20057;-59
2023/10/11 06:17:48;;;;;;;;;;;15.20;99.90;;;;;;5005068;28;20042;-60
2023/10/11 06:20:27;;;;;;;1.23;0.75;;;15.20;99.90;;;;;;5005812;28;19921;-60
2023/10/11 06:22:57;;;;;;;4.28;1.00;;;15.30;99.90;;;;;;5006104;28;20050;-61
2023/10/11 06:28:14;;;;;;;5.25;1.30;;;15.20;99.90;;;;;;5006867;28;20063;-61
2023/10/11 06:30:43;;;;;;;5.03;1.02;;;15.20;99.90;;;;;;5006550;28;20050;-61
2023/10/11 06:33:12;;;;;;;4.50;1.35;;;15.20;99.90;;;;;;5004052;28;20069;-61
2023/10/11 06:35:44;;;;;;;2.83;0.82;;;15.20;99.90;;;;;;5005755;28;20046;-61
2023/10/11 06:38:12;;;;;;;2.65;1.40;;;15.30;99.90;;;;;;5004904;28;20073;-60
2023/10/11 06:40:47;;;;;;;5.43;1.33;;;15.30;99.90;;;;;;5005742;28;20053;-61
2023/10/11 06:43:15;;;;;;;2.30;1.13;;;15.30;99.90;;;;;;5002414;28;20057;-62
2023/10/11 06:45:44;;;;;;;2.78;1.20;;;15.30;99.90;;;;;;5001523;28;20398;-61
2023/10/11 06:48:16;;;;;;;2.05;1.30;;;15.30;99.90;;;;;;5008363;28;20052;-60
2023/10/11 06:50:46;;;;;;;3.33;1.13;;;15.30;99.90;;;;;;5008621;28;20050;-62
2023/10/11 06:53:14;;;;;;;;;;;15.30;99.90;;;;;;5005501;28;20057;-61
2023/10/11 06:55:47;;;;;;;3.58;1.15;;;15.30;99.90;;;;;;5005649;28;19925;-61
2023/10/11 06:58:16;;;;;;;5.07;1.17;;;15.30;99.90;;;;;;5006955;28;20042;-61
2023/10/11 07:00:53;;;;;;;4.45;1.30;;;15.40;99.90;;;;;;5007826;28;20087;-61
2023/10/11 07:05:56;;;;;;;4.40;1.13;;;15.40;99.90;;;;;;4985803;28;20534;-60
2023/10/11 07:08:35;;;;;;;2.40;1.20;;;15.40;99.90;;;;;;4997692;28;20046;-61
2023/10/11 07:14:00;;;;;;;3.63;1.40;;;15.40;99.90;;;;;;4998922;28;20046;-61
2023/10/11 07:16:29;;;;;;;2.45;0.95;;;15.40;99.90;;;;;;5000174;28;20057;-62
2023/10/11 07:18:58;;;;;;;0.95;0.63;;;15.40;99.90;;;;;;4994545;28;20422;-62
2023/10/11 07:27:09;;;;;;;3.28;1.08;;;15.50;99.90;;;;;;4998336;28;20057;-60
2023/10/11 07:29:48;;;;;;;1.50;0.82;;;15.50;99.90;;;;;;5000328;28;20042;-61
2023/10/11 07:32:18;;;;;;;3.58;1.08;;;15.50;99.90;;;;;;4991806;28;20054;-59
2023/10/11 07:34:48;;;;;;;1.83;0.80;;;15.50;99.90;;;;;;5005353;28;20045;-61
2023/10/11 07:37:19;;;;;;;2.03;0.82;;;15.50;99.90;;;;;;5007186;28;20053;-62
2023/10/11 07:39:47;;;;;;;3.63;0.85;;;15.50;99.90;;;;;;5008317;28;20069;-60
2023/10/11 07:42:18;;;;;;;2.80;1.05;;;15.50;99.90;;;;;;5007599;28;20046;-60
2023/10/11 07:44:52;;;;;;;3.42;0.90;;;15.50;99.90;;;;;;5006890;28;20050;-60
2023/10/11 07:47:25;;;;;;;1.35;0.90;;;15.50;99.90;;;;;;5003057;28;20060;-59
2023/10/11 07:49:54;;;;;;;3.65;1.17;;;15.50;99.90;;;;;;4999163;28;20493;-60
2023/10/11 07:52:22;;;;;;;0.98;0.75;;;15.50;99.90;;;;;;5006498;28;20417;-60
2023/10/11 07:54:52;;;;;;;5.03;1.02;;;15.50;99.90;;;;;;4991197;28;20491;-59
2023/10/11 07:57:21;;;;;;;3.78;1.02;;;15.50;99.90;;;;;;4993261;28;20050;-61
2023/10/11 07:59:51;;;;;;;3.13;0.85;;;15.60;99.90;;;;;;4998495;28;20057;-60
2023/10/11 08:02:41;;;;;;;1.65;0.98;;;15.60;99.90;;;;;;4996117;28;20049;-59
2023/10/11 08:05:14;;;;;;;;;;;15.60;99.90;;;;;;4998946;28;20421;-59
2023/10/11 08:07:42;;;;;;;1.30;0.90;;;15.50;99.90;;;;;;4996105;28;19928;-60
2023/10/11 08:13:26;;;;;;;1.60;0.88;;;15.50;99.90;;;;;;4976408;28;20058;-61
2023/10/11 08:15:57;;;;;;;1.95;0.80;;;15.50;99.90;;;;;;4959188;28;20054;-60
2023/10/11 08:18:26;;;;;;;0.88;0.73;;;15.50;99.90;;;;;;4973866;28;20060;-61
2023/10/11 08:20:54;;;;;;;1.83;0.73;;;15.50;99.90;;;;;;5001490;28;20050;-60
2023/10/11 08:23:31;;;;;;;1.27;0.85;;;15.50;99.90;;;;;;5008270;28;20046;-60
2023/10/11 08:26:05;;;;;;;1.65;0.85;;;15.50;99.90;;;;;;5011390;28;20402;-60
2023/10/11 08:28:35;;;;;;;1.88;0.80;;;15.50;99.90;;;;;;5008027;28;20050;-60
2023/10/11 08:31:04;;;;;;;1.25;0.60;;;15.50;99.90;;;;;;4991311;28;20046;-60
2023/10/11 08:33:31;;;;;;;1.55;0.60;;;15.50;99.90;;;;;;5008339;28;20675;-60
2023/10/11 08:35:59;;;;;;;0.77;0.70;;;15.50;99.90;;;;;;5010005;28;20046;-61
2023/10/11 08:38:27;;;;;;;2.63;0.70;;;15.50;99.90;;;;;;5006818;28;20049;-61
2023/10/11 08:40:58;;;;;;;2.38;0.50;;;15.50;99.90;;;;;;5001487;28;20058;-61
2023/10/11 08:43:26;;;;;;;2.05;0.60;;;15.50;99.90;;;;;;5003110;28;20502;-61
2023/10/11 08:46:01;;;;;;;3.88;0.77;;;15.50;99.90;;;;;;5009256;28;20394;-61
2023/10/11 08:48:29;;;;;;;1.45;0.52;;;15.50;99.90;;;;;;5001640;28;20617;-61
2023/10/11 08:50:58;;;;;;;1.33;0.45;;;15.50;99.90;;;;;;5002945;28;20398;-61
2023/10/11 08:53:26;;;;;;;2.50;0.30;;;15.50;99.90;;;;;;5004976;28;20122;-61
2023/10/11 08:55:57;;;;;;;3.00;0.57;;;15.50;99.90;;;;;;5007520;28;20049;-61
2023/10/11 08:58:29;;;;;;;3.78;0.40;;;15.50;99.90;;;;;;5001468;28;20065;-61
2023/10/11 09:00:59;;;;;;;1.10;0.20;;;15.50;99.90;;;;;;5006539;28;20493;-61
2023/10/11 09:03:51;;;;;;;2.65;0.47;;;15.50;99.90;;;;;;5007521;28;20396;-61
2023/10/11 09:06:21;;;;;;;1.90;0.50;;;15.40;99.90;;;;;;5009416;28;20309;-61
2023/10/11 09:08:51;;;;;;;1.23;0.32;;;15.40;99.90;;;;;;5002157;28;20053;-60
2023/10/11 09:11:28;;;;;;;;;;;15.40;99.90;;;;;;4992473;28;20410;-60
2023/10/11 09:14:22;;;;;;;0.50;0.37;;;15.40;99.90;;;;;;5010059;28;20285;-60
2023/10/11 09:16:52;;;;;;;1.33;0.47;;;15.40;99.90;;;;;;5003776;28;20054;-60
2023/10/11 09:19:19;;;;;;;1.00;0.40;;;15.50;99.90;;;;;;5005254;28;20053;-60
2023/10/11 09:22:02;;;;;;;0.55;0.35;;;15.50;99.90;;;;;;5010247;28;20046;-60
2023/10/11 09:24:38;;;;;;;0.35;0.30;;;15.50;99.90;;;;;;5009154;28;20061;-60
2023/10/11 09:27:18;;;;;;;1.50;0.50;;;15.50;99.90;;;;;;5007620;28;20046;-61
2023/10/11 09:29:48;;;;;;;0.82;0.30;;;15.60;99.90;;;;;;4987667;28;20038;-60
2023/10/11 09:32:19;;;;;;;0.70;0.20;;;15.60;99.90;;;;;;4986860;28;20050;-61
2023/10/11 09:34:50;;;;;;;0.43;0.30;;;15.80;99.90;;;;;;4991696;28;20050;-61
2023/10/11 09:37:20;;;;;;;1.65;0.40;;;15.90;99.90;;;;;;4991370;28;20038;-61
2023/10/11 09:39:51;;;;;;;0.77;0.30;;;16.00;99.90;;;;;;5006952;28;20525;-61
2023/10/11 09:42:22;;;;;;;0.30;0.30;;;16.10;99.90;;;;;;5001748;28;20050;-61
2023/10/11 09:44:57;;;;;;;0.30;0.30;;;16.20;99.90;;;;;;5009717;28;20049;-61
2023/10/11 09:47:31;;;;;;;1.60;0.50;;;16.20;99.90;;;;;;5001984;28;20057;-63
2023/10/11 09:50:03;;;;;;;0.22;0.20;;;16.20;99.90;;;;;;5009115;28;20050;-63
2023/10/11 09:52:33;;;;;;;0.13;0.13;;;16.30;99.90;;;;;;4988152;28;20406;-62
2023/10/11 09:55:17;;;;;;;5.68;0.43;;;16.30;99.90;;;;;;4990504;28;20041;-61
2023/10/11 09:58:04;;;;;;;1.05;0.20;;;16.40;99.90;;;;;;4994509;28;20058;-62
2023/10/11 10:00:50;;;;;;;1.35;0.40;;;16.40;99.90;;;;;;5008626;28;20049;-61
2023/10/11 10:03:24;;;;;;;0.45;0.20;;;16.40;99.90;;;;;;4993644;28;20054;-63
2023/10/11 10:06:21;;;;;;;0.65;0.30;;;16.40;99.90;;;;;;4988734;28;20046;-62
2023/10/11 10:09:48;;;;;;;0.75;0.45;;;16.40;99.90;;;;;;4989758;28;20544;-61
2023/10/11 10:12:05;;;;;;;0.35;0.30;;;16.50;99.90;;;;;;4985679;28;20050;-62
2023/10/11 10:14:38;;;;;;;0.63;0.22;;;16.60;99.90;;;;;;5000733;28;20037;-61
2023/10/11 10:17:11;;;;;;;1.15;0.30;;;16.60;99.90;;;;;;4997349;28;20050;-61
2023/10/11 10:19:40;;;;;;;0.63;0.30;;;16.70;99.90;;;;;;5008714;28;20049;-61
2023/10/11 10:22:27;;;;;;;0.75;0.20;;;16.70;99.90;;;;;;4995196;28;20417;-61
2023/10/11 10:25:18;;;;;;;0.20;0.20;;;16.80;99.90;;;;;;4990104;28;20061;-61
2023/10/11 10:27:46;;;;;;;2.13;0.40;;;17.00;99.90;;;;;;4991530;28;20054;-60
2023/10/11 10:30:21;;;;;;;0.22;0.10;;;17.00;99.90;;;;;;5007789;28;20049;-63
2023/10/11 10:33:19;;;;;;;0.10;0.10;;;17.10;99.90;;;;;;4994809;28;20050;-62
2023/10/11 10:35:48;;;;;;;0.68;0.20;;;17.10;99.90;;;;;;5007655;28;20049;-61
2023/10/11 10:38:22;;;;;;;0.20;0.10;;;17.10;99.90;;;;;;4990213;28;20042;-61
2023/10/11 10:41:22;;;;;;;1.25;0.30;;;17.00;99.90;;;;;;4989482;28;20058;-63
2023/10/11 10:44:08;;;;;;;3.97;1.20;;;16.90;99.90;;;;;;5001117;28;20046;-63
2023/10/11 10:46:50;;;;;;;2.22;2.03;;;16.80;99.90;;;;;;4991377;28;20050;-64
2023/10/11 10:49:40;;;;;;;3.13;2.63;;;16.70;99.90;;;;;;5004445;28;20046;-61
2023/10/11 10:52:16;;;;;;;3.40;2.55;;;16.50;99.90;;;;;;5007707;28;20045;-60
2023/10/11 10:55:01;;;;;;;5.03;2.42;;;16.30;99.90;;;;;;4995353;28;20049;-60
2023/10/11 10:57:36;;;;;;;2.75;1.40;;;16.20;99.90;;;;;;5006182;28;20050;-61
2023/10/11 11:00:24;;;;;;;2.40;1.55;;;16.00;99.90;;;;;;4999843;28;20508;-61
2023/10/11 11:02:52;;;;;;;2.97;1.80;;;15.90;99.90;;;;;;4997266;28;20437;-60
2023/10/11 11:05:25;;;;;;;3.53;1.90;;;15.70;99.90;;;;;;5005798;28;20482;-60
2023/10/11 11:08:23;;;;;;;3.03;1.83;;;15.60;99.90;;;;;;4993711;28;20509;-61
2023/10/11 11:11:18;;;;;;;4.28;1.60;;;15.50;99.90;;;;;;5003547;28;20058;-60
2023/10/11 11:13:48;;;;;;;2.00;1.70;;;15.40;99.90;;;;;;5005269;28;20061;-60
2023/10/11 11:16:26;;;;;;;3.70;1.85;;;15.20;99.90;;;;;;5008188;28;20045;-60
2023/10/11 11:19:00;;;;;;;1.90;1.48;;;15.10;99.90;;;;;;4997428;28;20482;-59
2023/10/11 11:21:31;;;;;;;1.77;1.67;;;14.90;99.90;;;;;;5007193;28;20405;-59
2023/10/11 11:24:21;;;;;;;2.10;1.70;;;14.80;99.90;;;;;;4997988;28;20398;-60
2023/10/11 11:26:52;;;;;;;2.35;2.00;;;14.70;99.90;;;;;;4987562;28;20046;-59
2023/10/11 11:29:33;;;;;;;3.65;2.42;;;14.60;99.90;;;;;;5003109;28;20053;-60
2023/10/11 11:32:17;;;;;;;3.35;2.20;;;14.50;99.90;;;;;;5008103;28;20046;-59
2023/10/11 11:35:02;;;;;;;3.63;2.38;;;14.50;99.90;;;;;;4987919;28;20049;-58
2023/10/11 11:37:34;;;;;;;5.22;2.25;;;14.50;99.90;;;;;;4972849;28;20053;-59
2023/10/11 11:42:48;;;;;;;3.92;2.35;;;14.60;99.90;;;;;;4994090;28;20384;-59
2023/10/11 11:45:17;;;;;;;4.93;2.03;;;14.60;99.90;;;;;;5004543;28;20049;-59
2023/10/11 11:47:58;;;;;;;2.92;1.98;;;14.50;99.90;;;;;;4988797;28;20060;-60
2023/10/11 11:50:37;;;;;;;2.15;1.95;;;14.50;99.90;;;;;;4999643;28;20045;-59
2023/10/11 11:53:06;;;;;;;3.70;1.90;;;14.40;99.90;;;;;;4998369;28;20046;-59
2023/10/11 11:55:35;;;;;;;3.58;1.42;;;14.30;99.90;;;;;;4994911;28;20050;-59
2023/10/11 11:58:10;;;;;;;1.55;1.42;;;14.30;99.90;;;;;;4992634;28;20517;-60
2023/10/11 12:00:45;;;;;;;1.80;1.33;;;14.20;99.90;;;;;;4989781;28;20052;-60
2023/10/11 12:03:14;;;;;;;1.08;0.98;;;14.20;99.90;;;;;;5001240;28;20838;-60
2023/10/11 12:05:42;;;;;;;1.17;1.08;;;14.10;99.90;;;;;;4994918;28;20050;-60
2023/10/11 12:08:20;;;;;;;2.10;0.80;;;14.10;99.90;;;;;;4989799;28;20058;-59
2023/10/11 12:10:49;;;;;;;4.57;1.02;;;14.10;99.90;;;;;;5001908;28;20058;-59
2023/10/11 12:13:26;;;;;;;2.78;1.63;;;14.00;99.90;;;;;;5002386;28;20042;-59
2023/10/11 12:15:56;;;;;;;6.60;1.88;;;13.90;99.90;;;;;;5007590;28;20046;-61
2023/10/11 12:18:32;;;;;;;4.55;2.00;;;13.90;99.90;;;;;;5001774;28;20058;-61
2023/10/11 12:21:10;;;;;;;3.00;0.90;;;13.90;99.90;;;;;;5005206;28;20057;-61
2023/10/11 12:23:46;;;;;;;4.15;1.38;;;13.90;99.90;;;;;;4988385;28;20088;-61
2023/10/11 12:26:19;;;;;;;1.52;1.20;;;13.90;99.90;;;;;;4989594;28;20052;-60
2023/10/11 12:28:48;;;;;;;2.85;0.90;;;13.90;99.90;;;;;;4990675;28;20437;-61
2023/10/11 12:31:18;;;;;;;2.15;1.05;;;13.90;99.90;;;;;;5000011;28;20043;-61
2023/10/11 12:33:46;;;;;;;4.22;1.30;;;13.90;99.90;;;;;;4994116;28;20061;-61
2023/10/11 12:36:20;;;;;;;4.50;1.40;;;13.90;99.90;;;;;;4996374;28;20053;-61
2023/10/11 12:38:51;;;;;;;1.98;1.45;;;13.90;99.90;;;;;;5005678;28;20340;-61
2023/10/11 12:41:19;;;;;;;1.80;1.10;;;13.80;99.90;;;;;;5011086;28;20049;-62
2023/10/11 12:43:49;;;;;;;4.95;0.93;;;13.80;99.90;;;;;;5006041;28;20047;-60
2023/10/11 12:46:18;;;;;;;2.53;1.25;;;13.70;99.90;;;;;;5010984;28;20061;-61
2023/10/11 12:48:54;;;;;;;2.88;1.23;;;13.70;99.90;;;;;;5002064;28;20129;-60
2023/10/11 12:51:24;;;;;;;3.90;1.60;;;13.70;99.90;;;;;;4999974;28;20043;-60
2023/10/11 12:53:54;;;;;;;4.78;1.63;;;13.60;99.90;;;;;;4991244;28;20054;-60
2023/10/11 12:56:24;;;;;;;2.83;1.40;;;13.60;99.90;;;;;;4991710;28;20497;-61
2023/10/11 12:58:53;;;;;;;3.20;1.80;;;13.60;99.90;;;;;;4998741;28;20061;-61
2023/10/11 13:01:40;;;;;;;3.67;2.08;;;13.60;99.90;;;;;;4991013;28;20038;-60
2023/10/11 13:04:10;;;;;;;2.92;1.63;;;13.50;99.90;;;;;;5000710;28;20477;-60
2023/10/11 13:06:39;;;;;;;4.25;1.80;;;13.50;99.90;;;;;;4998685;28;20053;-61
2023/10/11 13:09:14;;;;;;;3.03;1.73;;;13.40;99.90;;;;;;5003022;28;20069;-60
2023/10/11 13:11:46;;;;;;;8.43;1.80;;;13.40;99.90;;;;;;4989972;28;20490;-60
2023/10/11 13:14:21;;;;;;;4.65;1.40;;;13.40;99.90;;;;;;5006010;28;20506;-61
2023/10/11 13:16:51;;;;;;;3.47;1.45;;;13.40;99.90;;;;;;5001651;28;20049;-60
2023/10/11 13:19:24;;;;;;;7.07;1.58;;;13.30;99.90;;;;;;5001486;28;20046;-60
2023/10/11 13:21:54;;;;;;;4.95;1.38;;;13.30;99.90;;;;;;5009011;28;20054;-59
2023/10/11 13:24:23;;;;;;;6.28;2.20;;;13.30;99.90;;;;;;5009693;28;20504;-58
2023/10/11 13:26:54;;;;;;;2.05;1.38;;;13.20;99.90;;;;;;5010101;28;20604;-58
2023/10/11 13:29:24;;;;;;;4.18;1.75;;;13.20;99.90;;;;;;4996774;28;20057;-59
2023/10/11 13:31:56;;;;;;;5.43;1.35;;;13.10;99.90;;;;;;4994987;28;20057;-58
2023/10/11 13:34:30;;;;;;;6.00;1.20;;;13.00;99.90;;;;;;5006166;28;20486;-58
2023/10/11 13:36:58;;;;;;;2.55;1.13;;;12.90;99.90;;;;;;5000146;28;20057;-58
2023/10/11 13:39:38;;;;;;;6.50;1.20;;;12.90;99.90;;;;;;4992969;28;20042;-58
2023/10/11 13:42:14;;;;;;;3.42;1.35;;;12.80;99.90;;;;;;4992028;28;20091;-58
2023/10/11 13:44:45;;;;;;;5.70;1.63;;;12.70;99.90;;;;;;5006169;28;20034;-58
2023/10/11 13:47:14;;;;;;;3.67;1.73;;;12.60;99.90;;;;;;5003896;28;20414;-58
2023/10/11 13:49:42;;;;;;;4.43;1.60;;;12.50;99.90;;;;;;5005338;28;20041;-59
2023/10/11 13:52:09;;;;;;;6.22;1.88;;;12.50;99.90;;;;;;5006017;28;20050;-59
2023/10/11 13:54:42;;;;;;;7.07;2.25;;;12.50;99.90;;;;;;5006211;28;20065;-59
2023/10/11 13:57:15;;;;;;;12.20;4.18;;;12.50;99.90;;;;;;5005695;28;20049;-59
2023/10/11 13:59:50;;;;;;;16.65;2.78;;;12.50;99.90;;;;;;5007866;28;20046;-59
2023/10/11 14:07:37;;;;;;;3.17;1.45;;;12.50;99.90;;;;;;4990205;28;20065;-59
2023/10/11 14:10:16;;;;;;;9.10;2.08;;;12.50;99.90;;;;;;5008388;28;20061;-58
2023/10/11 14:12:44;;;;;;;1.77;1.60;;;12.60;99.90;;;;;;5007824;28;20050;-59
2023/10/11 14:15:17;;;;;;;3.45;1.70;;;12.50;99.90;;;;;;4999342;28;20042;-58
2023/10/11 14:17:49;;;;;;;5.13;1.90;;;12.50;99.90;;;;;;4995856;28;20508;-58